Time;durP1;ratioP1;P1;durP2;ratioP2;P2;SDS_P1;SDS_P2;PMS_P1;PMS_P2;Temp;Humidity;BMP_temperature;BMP_pressure;BME280_temperature;BME280_humidity;BME280_pressure;Samples;Min_cycle;Max_cycle;Signal;HPM_P1;HPM_P2
2023/08/03 00:00:28;;;;;;;3.80;0.90;;;;;;;17.46;100.00;98607.33;106688;1253;73718;-70
2023/08/03 00:02:55;;;;;;;8.20;1.20;;;;;;;17.44;100.00;98609.69;106407;1256;70607;-70
2023/08/03 00:05:22;;;;;;;4.60;1.00;;;;;;;17.46;100.00;98604.53;106451;1254;71987;-70
2023/08/03 00:07:49;;;;;;;4.40;1.00;;;;;;;17.44;100.00;98600.89;106566;1252;61503;-69
2023/08/03 00:10:17;;;;;;;5.30;1.10;;;;;;;17.43;100.00;98596.28;106785;1252;60465;-70
2023/08/03 00:12:45;;;;;;;5.00;0.90;;;;;;;17.41;100.00;98594.89;106721;1251;72717;-70
2023/08/03 00:15:14;;;;;;;4.30;1.10;;;;;;;17.41;100.00;98586.15;106484;1257;70951;-71
2023/08/03 00:17:41;;;;;;;4.60;1.10;;;;;;;17.38;100.00;98581.38;106579;1251;72812;-71
2023/08/03 00:20:09;;;;;;;4.30;0.90;;;;;;;17.37;100.00;98576.56;109153;1251;61336;-72
2023/08/03 00:22:37;;;;;;;4.30;1.10;;;;;;;17.36;100.00;98575.67;107291;1252;61058;-71
2023/08/03 00:25:04;;;;;;;4.30;0.90;;;;;;;17.37;100.00;98575.71;107689;1252;72948;-71
2023/08/03 00:27:31;;;;;;;4.80;1.10;;;;;;;17.38;100.00;98577.80;107129;1252;71277;-72
2023/08/03 00:29:57;;;;;;;5.20;1.10;;;;;;;17.38;100.00;98578.16;106965;1254;72025;-72
2023/08/03 00:32:24;;;;;;;5.40;1.20;;;;;;;17.40;100.00;98576.29;106673;1258;60482;-70
2023/08/03 00:34:51;;;;;;;6.10;1.50;;;;;;;17.38;100.00;98581.60;106433;1253;61505;-71
2023/08/03 00:37:18;;;;;;;7.40;1.30;;;;;;;17.34;100.00;98578.73;106339;1257;73570;-72
2023/08/03 00:39:45;;;;;;;5.40;1.10;;;;;;;17.35;100.00;98575.55;106662;1253;71095;-71
2023/08/03 00:42:11;;;;;;;6.10;1.40;;;;;;;17.34;100.00;98573.20;106662;1253;72656;-73
2023/08/03 00:44:39;;;;;;;4.30;1.10;;;;;;;17.32;100.00;98566.13;106860;1256;60842;-72
2023/08/03 00:47:06;;;;;;;4.90;1.00;;;;;;;17.31;100.00;98562.48;109033;1252;58795;-72
2023/08/03 00:49:33;;;;;;;4.80;0.90;;;;;;;17.30;100.00;98560.23;109278;1253;74054;-71
2023/08/03 00:52:00;;;;;;;5.70;1.00;;;;;;;17.31;100.00;98554.03;107652;1252;70569;-71
2023/08/03 00:54:27;;;;;;;4.10;1.00;;;;;;;17.30;100.00;98550.65;108572;1252;72156;-71
2023/08/03 00:56:54;;;;;;;3.80;0.90;;;;;;;17.29;100.00;98551.61;107525;1253;62102;-70
2023/08/03 00:59:21;;;;;;;6.00;1.10;;;;;;;17.25;100.00;98552.85;106545;1253;60493;-70
2023/08/03 01:01:48;;;;;;;4.00;1.10;;;;;;;17.21;100.00;98545.30;106819;1252;73593;-70
2023/08/03 01:04:15;;;;;;;4.30;0.90;;;;;;;17.16;100.00;98546.92;106905;1253;72138;-72
2023/08/03 01:06:42;;;;;;;5.10;1.40;;;;;;;17.15;100.00;98534.70;106797;1257;71499;-70
2023/08/03 01:09:09;;;;;;;5.50;1.10;;;;;;;17.16;100.00;98536.25;106601;1252;60448;-70
2023/08/03 01:11:36;;;;;;;4.40;1.10;;;;;;;17.14;100.00;98536.95;106743;1252;60402;-70
2023/08/03 01:14:03;;;;;;;5.20;1.20;;;;;;;17.14;100.00;98534.27;108513;1253;73872;-71
2023/08/03 01:16:30;;;;;;;6.70;1.00;;;;;;;17.16;100.00;98535.09;106942;1252;70013;-70
2023/08/03 01:18:57;;;;;;;5.90;1.20;;;;;;;17.14;100.00;98531.23;106444;1252;70529;-70
2023/08/03 01:21:25;;;;;;;5.30;1.20;;;;;;;17.12;100.00;98525.23;106570;1253;61826;-70
2023/08/03 01:23:52;;;;;;;5.90;1.20;;;;;;;17.14;100.00;98520.13;106847;1253;61164;-70
2023/08/03 01:26:19;;;;;;;5.40;1.20;;;;;;;17.13;100.00;98513.02;106753;1252;72039;-70
2023/08/03 01:28:46;;;;;;;5.50;1.20;;;;;;;17.13;100.00;98506.40;106449;1256;71113;-71
2023/08/03 01:31:14;;;;;;;5.00;1.10;;;;;;;17.16;100.00;98503.42;106347;1254;72689;-70
2023/08/03 01:33:41;;;;;;;4.30;0.80;;;;;;;17.19;100.00;98502.98;106686;1253;62002;-70
2023/08/03 01:36:08;;;;;;;6.80;1.20;;;;;;;17.17;100.00;98497.41;106468;1253;60898;-71
2023/08/03 01:38:35;;;;;;;7.50;1.20;;;;;;;17.17;100.00;98498.11;106578;1252;72632;-70
2023/08/03 01:41:02;;;;;;;4.30;1.30;;;;;;;17.19;100.00;98504.68;106569;1253;71257;-71
2023/08/03 01:43:29;;;;;;;5.90;1.00;;;;;;;17.20;100.00;98506.08;106922;1253;72707;-71
2023/08/03 01:45:56;;;;;;;5.30;1.20;;;;;;;17.22;100.00;98508.44;106989;1253;61241;-71
2023/08/03 01:48:23;;;;;;;6.70;1.40;;;;;;;17.28;100.00;98505.27;106748;1252;60315;-71
2023/08/03 01:50:50;;;;;;;3.90;1.10;;;;;;;17.28;100.00;98503.96;106853;1253;72932;-70
2023/08/03 01:53:17;;;;;;;4.50;1.00;;;;;;;17.26;100.00;98505.74;106467;1256;70399;-70
2023/08/03 01:55:47;;;;;;;6.50;1.50;;;;;;;17.23;100.00;98501.99;106519;1252;72668;-70
2023/08/03 01:58:14;;;;;;;6.50;1.00;;;;;;;17.26;100.00;98495.06;106756;1252;60750;-71
2023/08/03 02:00:41;;;;;;;5.50;1.40;;;;;;;17.30;100.00;98498.61;107078;1253;60487;-71
2023/08/03 02:03:08;;;;;;;5.40;1.30;;;;;;;17.31;100.00;98487.55;106533;1253;72916;-71
2023/08/03 02:05:35;;;;;;;5.80;1.10;;;;;;;17.33;100.00;98491.41;106337;1253;70426;-70
2023/08/03 02:08:02;;;;;;;6.90;1.40;;;;;;;17.39;100.00;98487.31;106553;1252;72677;-71
2023/08/03 02:10:29;;;;;;;6.60;1.40;;;;;;;17.42;100.00;98486.34;106650;1253;61335;-70
2023/08/03 02:12:56;;;;;;;5.40;1.40;;;;;;;17.47;100.00;98478.07;106475;1255;60878;-71
2023/08/03 02:15:24;;;;;;;8.30;1.10;;;;;;;17.49;100.00;98474.15;106384;1254;73927;-71
2023/08/03 02:17:51;;;;;;;5.00;1.20;;;;;;;17.53;100.00;98472.14;106806;1253;71015;-71
2023/08/03 02:20:18;;;;;;;6.20;1.30;;;;;;;17.57;100.00;98469.88;106721;1253;71079;-72
2023/08/03 02:22:45;;;;;;;6.50;1.40;;;;;;;17.60;100.00;98469.11;106409;1253;62088;-69
2023/08/03 02:25:11;;;;;;;6.50;1.30;;;;;;;17.62;100.00;98468.83;106114;1253;60845;-70
2023/08/03 02:27:39;;;;;;;5.20;1.20;;;;;;;17.64;100.00;98467.86;106621;1253;73284;-70
2023/08/03 02:30:07;;;;;;;5.10;1.10;;;;;;;17.67;100.00;98462.31;106570;1255;69762;-71
2023/08/03 02:32:34;;;;;;;4.20;1.00;;;;;;;17.72;100.00;98458.65;106645;1253;73105;-68
2023/08/03 02:35:00;;;;;;;7.80;1.20;;;;;;;17.76;100.00;98464.15;106583;1253;60604;-70
2023/08/03 02:37:27;;;;;;;6.30;1.10;;;;;;;17.78;100.00;98460.87;106087;1253;60967;-69
2023/08/03 02:39:54;;;;;;;6.10;1.10;;;;;;;17.78;100.00;98461.08;106483;1257;73294;-69
2023/08/03 02:42:21;;;;;;;4.00;0.90;;;;;;;17.80;100.00;98460.91;106667;1253;70150;-70
2023/08/03 02:44:48;;;;;;;6.60;1.10;;;;;;;17.77;100.00;98454.70;106671;1253;71451;-69
2023/08/03 02:47:15;;;;;;;3.70;0.80;;;;;;;17.80;100.00;98449.06;106438;1252;60963;-70
2023/08/03 02:49:42;;;;;;;4.00;1.10;;;;;;;17.81;100.00;98444.23;106614;1252;61458;-69
2023/08/03 02:52:09;;;;;;;5.00;1.00;;;;;;;17.84;100.00;98450.14;106277;1253;73933;-70
2023/08/03 02:54:35;;;;;;;7.70;1.00;;;;;;;17.89;100.00;98450.91;106961;1253;70907;-68
2023/08/03 02:57:03;;;;;;;5.80;1.20;;;;;;;17.91;100.00;98446.23;106509;1253;71542;-69
2023/08/03 02:59:30;;;;;;;7.90;1.10;;;;;;;17.93;100.00;98446.48;106587;1253;62156;-70
2023/08/03 03:01:56;;;;;;;5.60;0.90;;;;;;;17.96;100.00;98435.73;106558;1253;60979;-69
2023/08/03 03:04:23;;;;;;;5.00;1.00;;;;;;;17.98;100.00;98442.10;106522;1253;72326;-70
2023/08/03 03:06:50;;;;;;;3.80;1.10;;;;;;;17.99;100.00;98441.30;106451;1257;71143;-69
2023/08/03 03:09:17;;;;;;;4.20;1.00;;;;;;;17.96;100.00;98446.04;106545;1252;72500;-69
2023/08/03 03:11:43;;;;;;;5.00;0.90;;;;;;;17.93;100.00;98442.98;106742;1253;62036;-69
2023/08/03 03:14:10;;;;;;;6.40;1.00;;;;;;;17.78;100.00;98441.89;106819;1257;60438;-67
2023/08/03 03:16:37;;;;;;;4.20;1.10;;;;;;;17.70;100.00;98444.87;106533;1253;71736;-68
2023/08/03 03:19:04;;;;;;;6.00;1.40;;;;;;;17.66;100.00;98441.41;106231;1253;69977;-69
2023/08/03 03:21:31;;;;;;;3.30;0.80;;;;;;;17.62;100.00;98444.88;106129;1253;71119;-69
2023/08/03 03:23:57;;;;;;;3.10;0.90;;;;;;;17.54;100.00;98449.41;106110;1254;61727;-69
2023/08/03 03:26:24;;;;;;;4.60;1.10;;;;;;;17.46;100.00;98446.81;106088;1253;60483;-70
2023/08/03 03:28:51;;;;;;;4.70;1.00;;;;;;;17.36;100.00;98452.27;106309;1253;73683;-68
2023/08/03 03:31:17;;;;;;;3.90;1.20;;;;;;;17.31;100.00;98445.55;106600;1252;70244;-67
2023/08/03 03:33:44;;;;;;;5.10;1.20;;;;;;;17.28;100.00;98446.25;106180;1256;71679;-67
2023/08/03 03:36:10;;;;;;;5.00;1.00;;;;;;;17.22;100.00;98455.33;106190;1252;60980;-67
2023/08/03 03:38:37;;;;;;;5.10;0.90;;;;;;;17.16;100.00;98451.66;106199;1253;60460;-71
2023/08/03 03:41:04;;;;;;;4.70;1.00;;;;;;;17.07;100.00;98452.80;106159;1256;71751;-71
2023/08/03 03:43:31;;;;;;;4.50;1.00;;;;;;;16.94;100.00;98448.35;106309;1253;71183;-74
2023/08/03 03:45:58;;;;;;;3.80;0.90;;;;;;;16.86;100.00;98439.95;106349;1253;72732;-72
2023/08/03 03:48:25;;;;;;;3.60;0.70;;;;;;;16.81;100.00;98437.11;106522;1257;61043;-72
2023/08/03 03:50:52;;;;;;;4.50;0.90;;;;;;;16.72;100.00;98443.21;107858;1253;60532;-70
2023/08/03 03:53:19;;;;;;;3.40;0.70;;;;;;;16.68;100.00;98442.95;106244;1253;74259;-70
2023/08/03 03:55:46;;;;;;;2.30;0.70;;;;;;;16.67;100.00;98445.80;108187;1256;70251;-68
2023/08/03 03:58:13;;;;;;;2.90;0.70;;;;;;;16.67;100.00;98443.38;106105;1253;72795;-69
2023/08/03 04:00:40;;;;;;;3.00;0.70;;;;;;;16.67;100.00;98451.14;106281;1253;61064;-72
2023/08/03 04:03:10;;;;;;;3.90;0.70;;;;;;;16.72;100.00;98458.68;106335;1253;60455;-71
2023/08/03 04:05:38;;;;;;;3.10;0.60;;;;;;;16.75;100.00;98457.78;106420;1252;72544;-71
2023/08/03 04:08:05;;;;;;;3.20;0.70;;;;;;;16.76;100.00;98458.95;106094;1253;71167;-70
2023/08/03 04:10:32;;;;;;;2.50;0.80;;;;;;;16.76;100.00;98462.91;106209;1253;72634;-71
2023/08/03 04:12:59;;;;;;;3.00;0.70;;;;;;;16.78;100.00;98470.77;106162;1253;62046;-68
2023/08/03 04:15:26;;;;;;;3.40;0.80;;;;;;;16.78;100.00;98465.70;106055;1254;61258;-69
2023/08/03 04:17:53;;;;;;;3.20;0.80;;;;;;;16.79;100.00;98466.61;106037;1253;71759;-72
2023/08/03 04:20:20;;;;;;;2.40;0.70;;;;;;;16.84;100.00;98472.79;106210;1254;70343;-69
2023/08/03 04:22:47;;;;;;;2.60;0.80;;;;;;;16.87;100.00;98475.52;106331;1253;71637;-69
2023/08/03 04:25:14;;;;;;;3.20;0.90;;;;;;;16.91;100.00;98481.77;106674;1253;62045;-68
2023/08/03 04:27:40;;;;;;;3.20;0.90;;;;;;;16.90;100.00;98486.22;106047;1253;61034;-67
2023/08/03 04:30:10;;;;;;;2.10;0.80;;;;;;;16.89;100.00;98488.63;106122;1257;72895;-68
2023/08/03 04:32:37;;;;;;;2.30;0.70;;;;;;;16.93;100.00;98496.11;106200;1253;69852;-69
2023/08/03 04:35:05;;;;;;;3.20;0.70;;;;;;;16.91;100.00;98508.44;106104;1254;71462;-69
2023/08/03 04:37:32;;;;;;;2.50;0.80;;;;;;;16.94;100.00;98513.37;106189;1253;62210;-69
2023/08/03 04:39:59;;;;;;;2.60;0.90;;;;;;;16.99;100.00;98522.73;106606;1253;60458;-70
2023/08/03 04:42:25;;;;;;;3.00;0.90;;;;;;;16.97;100.00;98518.23;106134;1252;73861;-70
2023/08/03 04:44:52;;;;;;;2.40;0.70;;;;;;;16.93;100.00;98519.84;106253;1257;70331;-69
2023/08/03 04:47:19;;;;;;;1.60;1.00;;;;;;;16.89;100.00;98525.69;106046;1257;72778;-71
2023/08/03 04:49:46;;;;;;;3.10;0.80;;;;;;;16.90;100.00;98526.22;105966;1253;215965;-69
2023/08/03 04:52:13;;;;;;;3.20;0.90;;;;;;;16.91;100.00;98536.72;106152;1256;60385;-69
2023/08/03 04:54:40;;;;;;;2.40;1.00;;;;;;;16.89;100.00;98534.26;106315;1254;72679;-69
2023/08/03 04:57:07;;;;;;;2.10;0.90;;;;;;;16.86;100.00;98534.80;106121;1254;69949;-69
2023/08/03 04:59:33;;;;;;;3.60;0.90;;;;;;;16.86;100.00;98534.85;106792;1253;71436;-69
2023/08/03 05:02:00;;;;;;;1.90;0.90;;;;;;;16.87;100.00;98541.27;106151;1253;60499;-69
2023/08/03 05:04:27;;;;;;;4.00;1.20;;;;;;;16.89;100.00;98539.55;106204;1253;60432;-74
2023/08/03 05:06:54;;;;;;;2.70;1.00;;;;;;;16.89;100.00;98540.31;106352;1253;74208;-73
2023/08/03 05:09:21;;;;;;;2.40;0.90;;;;;;;16.88;100.00;98547.75;106163;1253;71608;-70
2023/08/03 05:11:47;;;;;;;4.30;1.20;;;;;;;16.85;100.00;98545.84;106108;1253;72727;-71
2023/08/03 05:14:14;;;;;;;3.30;1.00;;;;;;;16.90;100.00;98540.05;106243;1256;60757;-73
2023/08/03 05:16:41;;;;;;;3.80;1.40;;;;;;;16.96;100.00;98543.73;106263;1253;61496;-72
2023/08/03 05:19:08;;;;;;;2.40;1.00;;;;;;;16.99;100.00;98543.04;106625;1253;73155;-70
2023/08/03 05:21:35;;;;;;;2.90;1.20;;;;;;;17.03;100.00;98551.06;106156;1253;71158;-72
2023/08/03 05:24:01;;;;;;;3.70;1.60;;;;;;;17.07;100.00;98557.21;106328;1253;71754;-70
2023/08/03 05:26:32;;;;;;;2.80;1.20;;;;;;;17.06;100.00;98558.55;106153;1254;61945;-70
2023/08/03 05:28:59;;;;;;;2.20;1.20;;;;;;;17.11;100.00;98563.48;106345;1252;60459;-70
2023/08/03 05:31:30;;;;;;;3.00;1.10;;;;;;;17.15;100.00;98571.26;106083;1257;73851;-69
2023/08/03 05:33:57;;;;;;;3.80;1.20;;;;;;;17.17;100.00;98570.33;106109;1253;70246;-70
2023/08/03 05:36:23;;;;;;;2.40;1.20;;;;;;;17.18;100.00;98575.15;106506;1254;71982;-72
2023/08/03 05:38:53;;;;;;;2.00;1.10;;;;;;;17.16;100.00;98574.90;106389;1255;62151;-72
2023/08/03 05:41:25;;;;;;;3.60;1.00;;;;;;;17.17;100.00;98576.65;106496;1253;61701;-69
2023/08/03 05:43:52;;;;;;;3.00;0.80;;;;;;;17.12;100.00;98583.36;106406;1256;73857;-71
2023/08/03 05:46:19;;;;;;;2.40;1.20;;;;;;;17.08;100.00;98576.34;106224;1253;70449;-70
2023/08/03 05:48:52;;;;;;;2.10;1.10;;;;;;;17.12;100.00;98584.38;106355;1253;71694;-69
2023/08/03 05:51:28;;;;;;;4.10;1.20;;;;;;;17.11;100.00;98587.48;106567;1257;60845;-71
2023/08/03 05:53:56;;;;;;;3.20;1.20;;;;;;;17.11;100.00;98585.94;106423;1257;60455;-69
2023/08/03 05:56:23;;;;;;;3.30;1.10;;;;;;;17.11;100.00;98590.59;106374;1253;72662;-72
2023/08/03 05:58:52;;;;;;;3.50;1.20;;;;;;;17.13;100.00;98597.23;106308;1257;69635;-69
2023/08/03 06:01:23;;;;;;;2.70;1.20;;;;;;;17.13;100.00;98594.55;106504;1253;72797;-69
2023/08/03 06:03:53;;;;;;;4.00;1.50;;;;;;;17.17;100.00;98596.33;106418;1253;60925;-69
2023/08/03 06:06:22;;;;;;;3.40;1.30;;;;;;;17.19;100.00;98601.84;106717;1253;60527;-68
2023/08/03 06:08:56;;;;;;;3.30;1.60;;;;;;;17.17;100.00;98605.11;106339;1253;72672;-71
2023/08/03 06:11:24;;;;;;;4.60;1.60;;;;;;;17.18;100.00;98608.38;106870;1253;69826;-69
2023/08/03 06:13:54;;;;;;;3.70;1.20;;;;;;;17.21;100.00;98605.80;106288;1255;71469;-71
2023/08/03 06:16:23;;;;;;;3.90;1.30;;;;;;;17.22;100.00;98603.08;106348;1256;60853;-68
2023/08/03 06:18:52;;;;;;;5.10;1.80;;;;;;;17.23;100.00;98606.17;106283;1253;60881;-71
2023/08/03 06:21:21;;;;;;;4.70;1.70;;;;;;;17.23;100.00;98611.75;106586;1252;72353;-70
2023/08/03 06:23:50;;;;;;;3.00;1.10;;;;;;;17.25;100.00;98618.02;106523;1254;71213;-72
2023/08/03 06:26:18;;;;;;;3.50;1.20;;;;;;;17.28;100.00;98614.36;106448;1256;71546;-72
2023/08/03 06:28:46;;;;;;;3.30;1.30;;;;;;;17.32;100.00;98615.39;106271;1254;60795;-72
2023/08/03 06:31:18;;;;;;;3.70;1.10;;;;;;;17.39;100.00;98622.29;106415;1253;60708;-70
2023/08/03 06:33:47;;;;;;;4.70;1.10;;;;;;;17.45;100.00;98626.57;106527;1253;73920;-72
2023/08/03 06:36:23;;;;;;;3.90;1.30;;;;;;;17.51;100.00;98628.60;106425;1252;69853;-67
2023/08/03 06:38:50;;;;;;;2.60;1.10;;;;;;;17.55;100.00;98626.06;106271;1253;71487;-72
2023/08/03 06:41:21;;;;;;;3.10;1.10;;;;;;;17.59;100.00;98629.71;106317;1253;60825;-71
2023/08/03 06:43:48;;;;;;;3.50;1.20;;;;;;;17.69;100.00;98620.56;106581;1253;60554;-70
2023/08/03 06:46:15;;;;;;;2.90;1.30;;;;;;;17.77;100.00;98628.20;106421;1253;73986;-71
2023/08/03 06:48:41;;;;;;;3.60;1.00;;;;;;;17.92;100.00;98628.30;106499;1257;71357;-69
2023/08/03 06:51:08;;;;;;;2.90;1.10;;;;;;;18.01;100.00;98629.88;106407;1253;71908;-68
2023/08/03 06:53:35;;;;;;;3.50;1.10;;;;;;;18.06;100.00;98629.64;106417;1254;60954;-70
2023/08/03 06:56:03;;;;;;;3.60;1.00;;;;;;;18.03;100.00;98645.06;106558;1253;60414;-71
2023/08/03 06:58:30;;;;;;;3.00;1.20;;;;;;;17.96;100.00;98650.06;106397;1253;73712;-70
2023/08/03 07:00:58;;;;;;;4.50;2.00;;;;;;;17.97;100.00;98646.09;106233;1253;71251;-69
2023/08/03 07:03:25;;;;;;;3.00;1.20;;;;;;;17.94;100.00;98648.78;106349;1252;72887;-69
2023/08/03 07:05:53;;;;;;;3.60;1.00;;;;;;;17.84;100.00;98660.23;106372;1254;61867;-70
2023/08/03 07:08:20;;;;;;;2.70;1.00;;;;;;;17.79;100.00;98660.94;106371;1253;60540;-69
2023/08/03 07:10:47;;;;;;;3.50;1.10;;;;;;;17.83;100.00;98666.84;106228;1257;73058;-70
2023/08/03 07:13:14;;;;;;;2.90;1.10;;;;;;;17.86;100.00;98671.08;106296;1253;71017;-70
2023/08/03 07:15:40;;;;;;;2.90;1.10;;;;;;;17.99;100.00;98668.79;106175;1256;71560;-69
2023/08/03 07:18:07;;;;;;;2.00;0.70;;;;;;;18.13;100.00;98679.10;106402;1253;61760;-68
2023/08/03 07:20:35;;;;;;;2.40;0.90;;;;;;;18.20;100.00;98681.86;106353;1253;60447;-68
2023/08/03 07:23:01;;;;;;;2.50;1.00;;;;;;;18.25;100.00;98677.44;106375;1253;73266;-71
2023/08/03 07:25:31;;;;;;;3.70;1.10;;;;;;;18.37;100.00;98686.58;106249;1253;70566;-68
2023/08/03 07:27:57;;;;;;;2.50;0.80;;;;;;;18.48;100.00;98677.19;108097;1252;72567;-67
2023/08/03 07:30:24;;;;;;;2.90;0.90;;;;;;;18.60;100.00;98682.00;108833;1253;60317;-69
2023/08/03 07:32:52;;;;;;;2.40;0.90;;;;;;;18.64;100.00;98687.61;107222;1253;60553;-70
2023/08/03 07:35:20;;;;;;;3.10;1.00;;;;;;;18.70;100.00;98685.05;106713;1253;72650;-66
2023/08/03 07:37:47;;;;;;;2.80;0.90;;;;;;;18.77;100.00;98687.23;106077;1253;70664;-67
2023/08/03 07:40:14;;;;;;;2.20;0.80;;;;;;;18.88;100.00;98686.85;106202;1257;70943;-68
2023/08/03 07:42:40;;;;;;;2.30;0.70;;;;;;;18.97;100.00;98697.17;106306;1253;60465;-68
2023/08/03 07:45:07;;;;;;;2.70;0.70;;;;;;;19.02;100.00;98696.38;106307;1252;60450;-68
2023/08/03 07:47:34;;;;;;;1.80;0.70;;;;;;;19.16;100.00;98692.20;106403;1253;74241;-69
2023/08/03 07:50:03;;;;;;;3.00;0.70;;;;;;;19.27;100.00;98697.86;107020;1253;70259;-70
2023/08/03 07:52:30;;;;;;;2.50;0.70;;;;;;;19.41;100.00;98704.15;106283;1253;73195;-66
2023/08/03 07:54:56;;;;;;;1.60;0.70;;;;;;;19.43;100.00;98716.45;106099;1253;62017;-66
2023/08/03 07:57:23;;;;;;;2.20;0.70;;;;;;;19.45;100.00;98721.96;106091;1253;60494;-66
2023/08/03 07:59:50;;;;;;;2.70;0.80;;;;;;;19.40;100.00;98721.63;106116;1258;60499;-67
2023/08/03 08:02:19;;;;;;;1.80;0.60;;;;;;;19.38;100.00;98727.67;106124;1258;70029;-69
2023/08/03 08:04:50;;;;;;;1.80;0.70;;;;;;;19.29;100.00;98728.55;106379;1253;73004;-68
2023/08/03 08:07:18;;;;;;;2.30;0.80;;;;;;;19.05;100.00;98733.02;106228;1257;60363;-69
2023/08/03 08:09:45;;;;;;;3.90;1.00;;;;;;;18.77;100.00;98736.66;106470;1252;60480;-72
2023/08/03 08:12:12;;;;;;;2.90;1.00;;;;;;;18.46;100.00;98728.79;106285;1253;73769;-69
2023/08/03 08:14:39;;;;;;;3.70;1.20;;;;;;;18.24;100.00;98727.69;106033;1254;70919;-71
2023/08/03 08:17:06;;;;;;;2.60;1.10;;;;;;;18.12;100.00;98735.45;106141;1253;71704;-69
2023/08/03 08:19:39;;;;;;;3.00;1.00;;;;;;;18.11;100.00;98735.77;106199;1259;60589;-69
2023/08/03 08:22:08;;;;;;;2.60;0.90;;;;;;;18.05;100.00;98734.06;106215;1253;60438;-69
2023/08/03 08:24:43;;;;;;;2.50;1.00;;;;;;;18.10;100.00;98735.39;106127;1253;73164;-69
2023/08/03 08:27:10;;;;;;;2.30;1.00;;;;;;;18.30;100.00;98739.16;106343;1253;71150;-68
2023/08/03 08:29:37;;;;;;;1.90;1.00;;;;;;;18.56;100.00;98743.72;106253;1253;72399;-71
2023/08/03 08:32:05;;;;;;;2.60;1.20;;;;;;;18.75;100.00;98747.57;106155;1255;60724;-68
2023/08/03 08:34:32;;;;;;;2.80;1.00;;;;;;;18.93;100.00;98742.98;106240;1253;60438;-68
2023/08/03 08:36:58;;;;;;;2.50;1.00;;;;;;;19.04;100.00;98746.84;106027;1256;73880;-67
2023/08/03 08:39:26;;;;;;;2.00;0.90;;;;;;;19.11;100.00;98750.67;106000;1257;71314;-68
2023/08/03 08:41:53;;;;;;;1.80;0.90;;;;;;;19.30;100.00;98748.44;106207;1253;71453;-68
2023/08/03 08:44:20;;;;;;;2.10;1.00;;;;;;;19.45;100.00;98757.30;106059;1256;60453;-68
2023/08/03 08:46:48;;;;;;;3.40;1.30;;;;;;;19.56;100.00;98758.08;106065;1253;60894;-68
2023/08/03 08:49:14;;;;;;;3.10;1.20;;;;;;;19.72;100.00;98759.52;106194;1253;72639;-68
2023/08/03 08:51:48;;;;;;;3.60;1.10;;;;;;;19.86;100.00;98767.91;106281;1253;71134;-66
2023/08/03 08:54:18;;;;;;;2.40;1.00;;;;;;;20.11;100.00;98757.23;105791;1257;72689;-70
2023/08/03 08:56:45;;;;;;;2.40;0.80;;;;;;;20.32;100.00;98760.45;106476;1259;60818;-70
2023/08/03 08:59:15;;;;;;;2.20;0.80;;;;;;;20.41;100.00;98777.64;106058;1253;61025;-69
2023/08/03 09:01:51;;;;;;;2.20;0.60;;;;;;;20.44;100.00;98770.23;108201;1252;73129;-70
2023/08/03 09:04:32;;;;;;;2.70;0.50;;;;;;;20.50;100.00;98788.36;108010;1253;72424;-71
2023/08/03 09:07:02;;;;;;;1.10;0.50;;;;;;;20.71;100.00;98789.48;107782;1253;72619;-72
2023/08/03 09:09:35;;;;;;;1.40;0.40;;;;;;;20.89;100.00;98789.95;107881;1257;61420;-70
2023/08/03 09:12:03;;;;;;;1.70;0.70;;;;;;;20.84;100.00;98803.65;106936;1257;60434;-69
2023/08/03 09:14:31;;;;;;;1.10;0.50;;;;;;;20.74;100.00;98805.49;106358;1256;74033;-69
2023/08/03 09:17:16;;;;;;;2.00;0.60;;;;;;;20.51;100.00;98823.52;106164;1253;70272;-71
2023/08/03 09:19:45;;;;;;;1.30;0.50;;;;;;;20.24;100.00;98815.13;106195;1253;71127;-68
2023/08/03 09:22:18;;;;;;;1.20;0.60;;;;;;;20.08;100.00;98823.27;106434;1253;60872;-71
2023/08/03 09:25:09;;;;;;;1.50;0.60;;;;;;;19.94;100.00;98831.40;106803;1253;60483;-71
2023/08/03 09:27:37;;;;;;;2.10;0.70;;;;;;;19.80;100.00;98840.77;106398;1257;72809;-70
2023/08/03 09:30:07;;;;;;;1.60;0.60;;;;;;;19.60;100.00;98845.19;106387;1253;69927;-70
2023/08/03 09:32:37;;;;;;;2.80;0.70;;;;;;;19.52;100.00;98838.67;106752;1253;71447;-72
2023/08/03 09:35:22;;;;;;;1.20;0.60;;;;;;;19.47;100.00;98847.96;106170;1253;60766;-71
2023/08/03 09:37:54;;;;;;;2.00;0.70;;;;;;;19.21;100.00;98848.36;106295;1253;60476;-70
2023/08/03 09:40:23;;;;;;;2.70;1.10;;;;;;;17.94;100.00;98866.42;106337;1258;75030;-70
2023/08/03 09:42:50;;;;;;;2.50;0.90;;;;;;;17.56;100.00;98859.05;106994;1256;71937;-72
2023/08/03 09:45:17;;;;;;;2.70;0.80;;;;;;;17.35;100.00;98853.90;106290;1254;72858;-72
2023/08/03 09:47:49;;;;;;;1.60;0.90;;;;;;;17.17;100.00;98860.51;106140;1253;62071;-73
2023/08/03 09:50:16;;;;;;;2.30;1.10;;;;;;;17.07;100.00;98862.77;106269;1253;60563;-71
2023/08/03 09:52:49;;;;;;;1.80;1.00;;;;;;;17.01;100.00;98861.57;106174;1254;73170;-71
2023/08/03 09:55:28;;;;;;;2.90;0.90;;;;;;;16.93;100.00;98869.19;106308;1255;68762;-70
2023/08/03 09:58:10;;;;;;;1.90;0.90;;;;;;;16.86;100.00;98871.42;106469;1251;71161;-72
2023/08/03 10:00:38;;;;;;;1.80;0.80;;;;;;;16.87;100.00;98872.48;106141;1251;60796;-71
2023/08/03 10:03:10;;;;;;;1.50;1.00;;;;;;;16.89;100.00;98879.30;106302;1257;60566;-73
2023/08/03 10:05:45;;;;;;;2.00;1.00;;;;;;;16.97;100.00;98884.27;106342;1257;73241;-73
2023/08/03 10:08:27;;;;;;;2.40;0.80;;;;;;;17.06;100.00;98891.16;106302;1253;70991;-71
2023/08/03 10:11:00;;;;;;;1.90;0.90;;;;;;;17.13;100.00;98892.15;106262;1257;70941;-71
2023/08/03 10:13:27;;;;;;;1.20;0.70;;;;;;;17.22;100.00;98894.80;107503;1253;60664;-73
2023/08/03 10:15:55;;;;;;;1.60;0.60;;;;;;;17.25;100.00;98896.75;109127;1253;59115;-71
2023/08/03 10:18:24;;;;;;;1.30;0.70;;;;;;;17.32;100.00;98894.48;109266;1253;73883;-72
2023/08/03 10:21:11;;;;;;;2.70;1.00;;;;;;;17.45;100.00;98900.83;109180;1253;69927;-72
2023/08/03 10:23:39;;;;;;;1.90;1.30;;;;;;;17.63;100.00;98907.31;108983;1253;72278;-72
2023/08/03 10:26:09;;;;;;;1.20;0.80;;;;;;;17.84;100.00;98906.25;109258;1253;60933;-72
2023/08/03 10:28:39;;;;;;;2.20;0.90;;;;;;;18.05;100.00;98913.14;109171;1253;59097;-74
2023/08/03 10:31:17;;;;;;;2.50;1.30;;;;;;;18.22;100.00;98914.11;107579;1254;74423;-72
2023/08/03 10:33:50;;;;;;;1.50;0.80;;;;;;;18.47;100.00;98907.97;106343;1252;72177;-70
2023/08/03 10:36:30;;;;;;;2.10;0.80;;;;;;;18.70;100.00;98915.34;106442;1253;73815;-72
2023/08/03 10:38:59;;;;;;;1.60;0.70;;;;;;;18.98;100.00;98919.48;106664;1253;60678;-73
2023/08/03 10:41:28;;;;;;;1.30;0.70;;;;;;;19.11;100.00;98913.37;106306;1253;60568;-71
2023/08/03 10:44:14;;;;;;;1.20;0.70;;;;;;;19.19;100.00;98918.23;106941;1253;73566;-76
2023/08/03 10:46:41;;;;;;;1.20;0.60;;;;;;;19.23;100.00;98923.00;106398;1253;70235;-71
2023/08/03 10:49:17;;;;;;;1.50;0.80;;;;;;;19.31;100.00;98927.43;106428;1253;73005;-71
2023/08/03 10:51:54;;;;;;;2.20;0.50;;;;;;;19.44;100.00;98930.80;106246;1253;61752;-74
2023/08/03 10:54:28;;;;;;;1.40;0.40;;;;;;;19.40;100.00;98937.66;106279;1260;60932;-69
2023/08/03 10:57:07;;;;;;;0.80;0.30;;;;;;;19.16;100.00;98947.05;106354;1258;75077;-71
2023/08/03 10:59:45;;;;;;;0.80;0.40;;;;;;;18.91;100.00;98944.02;106802;1253;70087;-71
2023/08/03 11:02:22;;;;;;;0.80;0.30;;;;;;;18.69;100.00;98947.79;106411;1253;72275;-70
2023/08/03 11:04:52;;;;;;;0.90;0.30;;;;;;;18.53;100.00;98951.67;106657;1253;60767;-69
2023/08/03 11:07:23;;;;;;;1.00;0.50;;;;;;;18.39;100.00;98955.11;106753;1256;60383;-71
2023/08/03 11:09:52;;;;;;;1.00;0.50;;;;;;;18.17;100.00;98961.28;106327;1256;72570;-71
2023/08/03 11:12:22;;;;;;;0.80;0.50;;;;;;;17.99;100.00;98961.69;106675;1256;69979;-69
2023/08/03 11:14:52;;;;;;;1.70;0.70;;;;;;;17.92;100.00;98964.46;106761;1259;71825;-71
2023/08/03 11:17:22;;;;;;;1.00;0.60;;;;;;;17.94;100.00;98964.15;108925;1253;61650;-69
2023/08/03 11:19:48;;;;;;;1.40;0.60;;;;;;;18.02;100.00;98975.44;108545;1253;59596;-71
2023/08/03 11:22:15;;;;;;;1.70;0.70;;;;;;;18.10;100.00;98972.92;106305;1256;73613;-69